createdAt,value
2022-08-19T00:01:53.784Z,101470.66
2022-08-19T00:04:25.287Z,101468.63
2022-08-19T00:06:52.939Z,101466.47
2022-08-19T00:09:22.487Z,101475.13
2022-08-19T00:11:49.108Z,101473.44
2022-08-19T00:14:18.011Z,101476.31
2022-08-19T00:16:46.637Z,101477.53
2022-08-19T00:19:13.440Z,101483.91
2022-08-19T00:21:40.497Z,101477.28
2022-08-19T00:24:12.057Z,101478.50
2022-08-19T00:26:39.737Z,101476.09
2022-08-19T00:29:08.503Z,101471.91
2022-08-19T00:31:35.090Z,101466.84
2022-08-19T00:34:01.551Z,101470.81
2022-08-19T00:36:29.523Z,101469.13
2022-08-19T00:38:56.488Z,101475.50
2022-08-19T00:41:24.651Z,101471.41
2022-08-19T00:44:06.090Z,101464.34
2022-08-19T00:46:34.369Z,101463.63
2022-08-19T00:49:03.479Z,101465.66
2022-08-19T00:51:33.389Z,101465.91
2022-08-19T00:54:01.809Z,101465.16
2022-08-19T00:56:28.746Z,101468.03
2022-08-19T00:58:58.576Z,101463.88
2022-08-19T01:01:25.157Z,101461.47
2022-08-19T01:03:57.233Z,101462.66
2022-08-19T01:06:26.631Z,101459.28
2022-08-19T01:08:54.593Z,101468.28
2022-08-19T01:11:21.303Z,101472.00
2022-08-19T01:13:49.752Z,101470.31
2022-08-19T01:16:18.438Z,101466.97
2022-08-19T01:18:44.908Z,101462.88
2022-08-19T01:21:33.461Z,101462.03
2022-08-19T01:24:00.128Z,101461.56
2022-08-19T01:26:27.569Z,101458.31
2022-08-19T01:28:59.611Z,101460.97
2022-08-19T01:31:32.711Z,101467.31
2022-08-19T01:34:01.092Z,101463.09
2022-08-19T01:36:31.788Z,101470.16
2022-08-19T01:39:00.359Z,101471.25
2022-08-19T01:41:26.897Z,101467.78
2022-08-19T01:44:13.505Z,101474.09
2022-08-19T01:46:41.479Z,101473.72
2022-08-19T01:49:09.088Z,101466.78
2022-08-19T01:51:39.718Z,101466.88
2022-08-19T01:54:11.132Z,101462.72
2022-08-19T01:56:37.593Z,101466.50
2022-08-19T01:59:09.250Z,101473.72
2022-08-19T02:01:35.839Z,101474.91
2022-08-19T02:04:02.693Z,101474.13
2022-08-19T02:06:29.907Z,101468.25
2022-08-19T02:08:57.582Z,101466.59
2022-08-19T02:11:35.086Z,101466.69
2022-08-19T02:14:04.249Z,101466.91
2022-08-19T02:16:31.516Z,101469.91
2022-08-19T02:19:01.638Z,101474.44
2022-08-19T02:21:29.090Z,101479.09
2022-08-19T02:23:56.331Z,101464.34
2022-08-19T02:26:23.181Z,101472.25
2022-08-19T02:28:49.843Z,101469.13
2022-08-19T02:31:19.842Z,101477.38
2022-08-19T02:33:46.574Z,101476.50
2022-08-19T02:36:15.538Z,101487.31
2022-08-19T02:38:42.854Z,101486.44
2022-08-19T02:41:19.834Z,101493.63
2022-08-19T02:44:28.839Z,101492.66
2022-08-19T02:46:34.563Z,101497.31
2022-08-19T02:49:04.627Z,101499.34
2022-08-19T02:51:34.451Z,101494.41
2022-08-19T02:54:01.567Z,101491.16
2022-08-19T02:56:28.365Z,101495.69
2022-08-19T02:58:56.471Z,101491.25
2022-08-19T03:01:29.655Z,101492.22
2022-08-19T03:03:57.485Z,101499.38
2022-08-19T03:06:24.774Z,101505.69
2022-08-19T03:08:51.796Z,101506.66
2022-08-19T03:11:30.398Z,101491.00
2022-08-19T03:13:58.290Z,101490.25
2022-08-19T03:16:27.408Z,101484.38
2022-08-19T03:18:55.023Z,101486.25
2022-08-19T03:21:25.506Z,101475.00
2022-08-19T03:23:55.365Z,101473.31
2022-08-19T03:26:21.839Z,101481.31
2022-08-19T03:28:51.545Z,101483.00
2022-08-19T03:31:44.462Z,101476.19
2022-08-19T03:34:18.542Z,101475.44
2022-08-19T03:36:45.685Z,101472.06
2022-08-19T03:39:12.231Z,101481.16
2022-08-19T03:41:45.422Z,101483.03
2022-08-19T03:44:19.576Z,101485.03
2022-08-19T03:46:56.038Z,101486.13
2022-08-19T03:49:27.208Z,101493.91
2022-08-19T03:51:57.395Z,101487.88
2022-08-19T03:54:25.714Z,101477.38
2022-08-19T03:56:54.559Z,101478.31
2022-08-19T03:59:33.579Z,101468.13
2022-08-19T04:02:02.760Z,101479.59
2022-08-19T04:04:29.843Z,101481.50
2022-08-19T04:06:58.389Z,101476.25
2022-08-19T04:09:24.799Z,101478.94
2022-08-19T04:11:57.119Z,101471.91
2022-08-19T04:14:26.818Z,101464.94
2022-08-19T04:16:53.616Z,101456.53
2022-08-19T04:19:20.753Z,101460.34
2022-08-19T04:21:49.316Z,101460.78
2022-08-19T04:24:16.671Z,101467.84
2022-08-19T04:26:43.819Z,101460.78
2022-08-19T04:29:16.710Z,101466.97
2022-08-19T04:31:45.286Z,101465.06
2022-08-19T04:34:15.188Z,101455.94
2022-08-19T04:36:45.460Z,101469.19
2022-08-19T04:39:17.623Z,101461.28
2022-08-19T04:42:04.203Z,101471.72
2022-08-19T04:44:35.632Z,101467.72
2022-08-19T04:47:10.786Z,101461.13
2022-08-19T04:49:38.185Z,101464.38
2022-08-19T04:52:04.610Z,101460.56
2022-08-19T04:54:38.175Z,101463.91
2022-08-19T04:57:09.571Z,101465.41
2022-08-19T04:59:37.558Z,101466.25
2022-08-19T05:02:05.236Z,101461.19
2022-08-19T05:04:33.360Z,101464.88
2022-08-19T05:07:01.957Z,101464.88
2022-08-19T05:09:42.162Z,101474.56
2022-08-19T05:12:16.696Z,101478.97
2022-08-19T05:14:43.560Z,101484.03
2022-08-19T05:20:19.750Z,101480.78
2022-08-19T05:22:48.013Z,101485.50
2022-08-19T05:25:20.169Z,101487.19
2022-08-19T05:27:47.969Z,101485.84
2022-08-19T05:30:15.314Z,101483.91
2022-08-19T05:32:42.204Z,101488.75
2022-08-19T05:35:10.369Z,101485.72
2022-08-19T05:37:36.827Z,101480.16
2022-08-19T05:40:04.944Z,101471.69
2022-08-19T05:42:31.589Z,101480.16
2022-08-19T05:44:58.170Z,101484.41
2022-08-19T05:47:24.635Z,101487.13
2022-08-19T05:49:51.753Z,101492.53
2022-08-19T05:52:19.563Z,101482.66
2022-08-19T05:54:55.505Z,101485.78
2022-08-19T05:57:22.237Z,101480.16
2022-08-19T05:59:57.610Z,101476.09
2022-08-19T06:02:26.886Z,101479.22
2022-08-19T06:04:53.427Z,101469.97
2022-08-19T06:07:20.400Z,101484.94
2022-08-19T06:09:59.023Z,101484.78
2022-08-19T06:12:32.660Z,101486.91
2022-08-19T06:15:01.685Z,101477.34
2022-08-19T06:17:31.311Z,101484.19
2022-08-19T06:19:59.216Z,101483.81
2022-08-19T06:22:25.642Z,101485.25
2022-08-19T06:24:53.636Z,101481.69
2022-08-19T06:27:21.161Z,101482.06
2022-08-19T06:29:48.062Z,101472.50
2022-08-19T06:32:17.321Z,101477.41
2022-08-19T06:34:43.942Z,101481.22
2022-08-19T06:37:10.367Z,101482.19
2022-08-19T06:39:39.973Z,101490.38
2022-08-19T06:42:10.955Z,101489.88
2022-08-19T06:44:42.658Z,101492.41
2022-08-19T06:47:14.833Z,101485.56
2022-08-19T06:49:42.585Z,101486.91
2022-08-19T06:52:13.678Z,101484.25
2022-08-19T06:54:45.926Z,101492.78
2022-08-19T06:57:24.055Z,101493.38
2022-08-19T06:59:50.636Z,101490.88
2022-08-19T07:04:48.490Z,101492.75
2022-08-19T07:07:21.818Z,101497.44
2022-08-19T07:09:57.292Z,101500.69
2022-08-19T07:12:30.418Z,101505.81
2022-08-19T07:14:58.638Z,101501.91
2022-08-19T07:17:25.357Z,101495.56
2022-08-19T07:19:54.359Z,101499.16
2022-08-19T07:22:24.246Z,101506.59
2022-08-19T07:24:51.979Z,101510.91
2022-08-19T07:27:24.199Z,101512.81
2022-08-19T07:29:55.701Z,101512.22
2022-08-19T07:32:23.031Z,101505.38
2022-08-19T07:34:49.450Z,101494.31
2022-08-19T07:37:17.103Z,101504.41
2022-08-19T07:39:43.755Z,101509.31
2022-08-19T07:42:11.434Z,101508.94
2022-08-19T07:47:48.758Z,101503.97
2022-08-19T07:50:08.033Z,101506.63
2022-08-19T07:52:35.174Z,101506.72
2022-08-19T07:55:04.599Z,101515.72
2022-08-19T07:57:31.129Z,101510.06
2022-08-19T07:59:57.682Z,101518.22
2022-08-19T08:02:24.140Z,101519.66
2022-08-19T08:05:09.845Z,101524.44
2022-08-19T08:07:54.643Z,101528.50
2022-08-19T08:10:21.630Z,101525.97
2022-08-19T08:13:09.155Z,101531.25
2022-08-19T08:15:42.123Z,101536.84
2022-08-19T08:18:09.782Z,101544.91
2022-08-19T08:20:36.243Z,101536.13
2022-08-19T08:23:21.659Z,101540.66
2022-08-19T08:25:49.417Z,101536.47
2022-08-19T08:28:17.706Z,101536.59
2022-08-19T08:30:46.800Z,101546.03
2022-08-19T08:35:46.586Z,101560.44
2022-08-19T08:38:13.754Z,101566.59
2022-08-19T08:40:54.351Z,101563.44
2022-08-19T08:43:33.073Z,101569.38
2022-08-19T08:46:08.552Z,101570.59
2022-08-19T08:48:47.488Z,101560.31
2022-08-19T08:51:24.934Z,101571.13
2022-08-19T08:53:57.770Z,101563.78
2022-08-19T08:56:24.281Z,101561.75
2022-08-19T08:59:09.336Z,101568.63
2022-08-19T09:01:37.014Z,101556.50
2022-08-19T09:04:06.411Z,101565.72
2022-08-19T09:07:00.088Z,101559.69
2022-08-19T09:09:42.080Z,101544.34
2022-08-19T09:12:16.174Z,101556.91
2022-08-19T09:14:57.855Z,101555.06
2022-08-19T09:17:36.405Z,101556.47
2022-08-19T09:20:20.240Z,101550.44
2022-08-19T09:22:47.547Z,101556.69
2022-08-19T09:25:16.999Z,101559.00
2022-08-19T09:27:55.174Z,101560.19
2022-08-19T09:30:31.731Z,101558.00
2022-08-19T09:32:58.657Z,101558.47
2022-08-19T09:35:29.668Z,101548.38
2022-08-19T09:37:59.590Z,101553.28
2022-08-19T09:40:28.178Z,101555.78
2022-08-19T09:42:58.122Z,101563.91
2022-08-19T09:45:24.892Z,101556.91
2022-08-19T09:47:54.169Z,101549.84
2022-08-19T09:50:22.974Z,101555.53
2022-08-19T09:52:53.975Z,101551.69
2022-08-19T09:55:23.398Z,101548.38
2022-08-19T09:57:50.606Z,101554.06
2022-08-19T10:00:17.311Z,101549.66
2022-08-19T10:02:44.767Z,101561.78
2022-08-19T10:05:31.255Z,101548.91
2022-08-19T10:07:58.345Z,101553.19
2022-08-19T10:10:25.132Z,101556.81
2022-08-19T10:12:51.619Z,101553.75
2022-08-19T10:15:28.981Z,101557.53
2022-08-19T10:17:56.377Z,101561.34
2022-08-19T10:20:23.701Z,101554.97
2022-08-19T10:22:51.924Z,101555.13
2022-08-19T10:25:19.849Z,101549.44
2022-08-19T10:27:51.144Z,101547.28
2022-08-19T10:30:18.891Z,101554.00
2022-08-19T10:32:47.058Z,101546.97
2022-08-19T10:35:21.158Z,101550.09
2022-08-19T10:37:56.741Z,101554.44
2022-08-19T10:40:24.246Z,101552.91
2022-08-19T10:42:50.718Z,101551.41
2022-08-19T10:45:17.880Z,101538.50
2022-08-19T10:47:44.310Z,101547.25
2022-08-19T10:50:30.146Z,101540.47
2022-08-19T10:52:56.711Z,101538.84
2022-08-19T10:55:43.902Z,101537.56
2022-08-19T10:58:13.083Z,101545.53
2022-08-19T11:00:41.108Z,101534.66
2022-08-19T11:03:07.535Z,101533.59
2022-08-19T11:05:39.999Z,101529.09
2022-08-19T11:08:23.115Z,101533.91
2022-08-19T11:10:54.530Z,101535.81
2022-08-19T11:13:21.143Z,101530.94
2022-08-19T11:15:48.368Z,101527.63
2022-08-19T11:18:14.896Z,101525.50
2022-08-19T11:20:41.311Z,101522.66
2022-08-19T11:23:08.024Z,101519.84
2022-08-19T11:25:35.420Z,101524.66
2022-08-19T11:28:01.815Z,101527.34
2022-08-19T11:30:28.860Z,101521.84
2022-08-19T11:32:55.302Z,101518.84
2022-08-19T11:35:22.061Z,101504.59
2022-08-19T11:37:48.604Z,101506.72
2022-08-19T11:40:15.190Z,101510.56
2022-08-19T11:42:57.065Z,101502.41
2022-08-19T11:45:29.007Z,101510.41
2022-08-19T11:47:56.481Z,101503.38
2022-08-19T11:50:24.511Z,101505.97
2022-08-19T11:52:52.206Z,101507.56
2022-08-19T11:55:19.010Z,101511.06
2022-08-19T11:57:45.462Z,101505.63
2022-08-19T12:00:14.041Z,101503.06
2022-08-19T12:02:41.441Z,101507.22
2022-08-19T12:05:12.225Z,101503.56
2022-08-19T12:07:40.584Z,101498.53
2022-08-19T12:10:07.810Z,101504.56
2022-08-19T12:12:34.889Z,101516.47
2022-08-19T12:15:01.521Z,101518.84
2022-08-19T12:17:28.049Z,101509.66
2022-08-19T12:19:55.209Z,101518.47
2022-08-19T12:22:22.370Z,101530.47
2022-08-19T12:24:53.294Z,101529.59
2022-08-19T12:27:32.056Z,101523.84
2022-08-19T12:30:09.795Z,101522.66
2022-08-19T12:32:36.333Z,101521.97
2022-08-19T12:35:05.730Z,101526.78
2022-08-19T12:37:33.234Z,101519.69
2022-08-19T12:40:00.463Z,101521.31
2022-08-19T12:42:27.369Z,101518.84
2022-08-19T12:44:53.852Z,101521.69
2022-08-19T12:47:21.370Z,101525.19
2022-08-19T12:49:53.123Z,101530.50
2022-08-19T12:52:23.293Z,101522.09
2022-08-19T12:54:54.631Z,101528.97
2022-08-19T12:57:23.214Z,101518.03
2022-08-19T12:59:59.296Z,101516.47
2022-08-19T13:02:25.702Z,101514.22
2022-08-19T13:04:52.090Z,101511.22
2022-08-19T13:07:18.604Z,101502.75
2022-08-19T13:09:45.722Z,101514.25
2022-08-19T13:12:14.013Z,101517.84
2022-08-19T13:14:42.011Z,101512.78
2022-08-19T13:17:09.567Z,101514.94
2022-08-19T13:19:37.787Z,101515.25
2022-08-19T13:22:04.326Z,101519.38
2022-08-19T13:24:37.879Z,101515.69
2022-08-19T13:27:04.667Z,101512.78
2022-08-19T13:29:49.788Z,101516.06
2022-08-19T13:32:34.695Z,101516.63
2022-08-19T13:35:03.964Z,101518.25
2022-08-19T13:37:42.454Z,101510.06
2022-08-19T13:40:35.203Z,101508.78
2022-08-19T13:43:17.570Z,101503.63
2022-08-19T13:45:52.872Z,101505.25
2022-08-19T13:48:19.729Z,101508.22
2022-08-19T13:50:48.308Z,101509.00
2022-08-19T13:53:15.944Z,101516.28
2022-08-19T13:55:44.059Z,101515.22
2022-08-19T13:58:11.680Z,101518.09
2022-08-19T14:00:43.557Z,101528.41
2022-08-19T14:03:10.477Z,101526.06
2022-08-19T14:05:37.550Z,101523.25
2022-08-19T14:08:04.206Z,101520.19
2022-08-19T14:10:32.487Z,101515.47
2022-08-19T14:13:03.045Z,101523.47
2022-08-19T14:15:31.050Z,101525.97
2022-08-19T14:17:57.567Z,101513.13
2022-08-19T14:20:25.870Z,101516.47
2022-08-19T14:22:54.035Z,101524.63
2022-08-19T14:25:25.463Z,101519.97
2022-08-19T14:27:52.111Z,101530.13
2022-08-19T14:30:22.089Z,101533.47
2022-08-19T14:32:48.573Z,101533.56
2022-08-19T14:35:16.456Z,101520.44
2022-08-19T14:37:46.116Z,101521.69
2022-08-19T14:40:15.340Z,101516.50
2022-08-19T14:42:42.831Z,101522.34
2022-08-19T14:45:10.310Z,101521.31
2022-08-19T14:47:37.243Z,101507.72
2022-08-19T14:50:10.542Z,101523.53
2022-08-19T14:52:44.602Z,101515.00
2022-08-19T14:55:11.043Z,101509.38
2022-08-19T14:57:37.611Z,101512.28
2022-08-19T15:00:08.724Z,101504.38
2022-08-19T15:02:35.586Z,101505.06
2022-08-19T15:05:05.117Z,101505.25
2022-08-19T15:07:32.170Z,101497.78
2022-08-19T15:09:58.720Z,101495.72
2022-08-19T15:12:25.626Z,101500.91
2022-08-19T15:14:55.952Z,101499.56
2022-08-19T15:17:43.389Z,101490.19
2022-08-19T15:20:13.543Z,101498.34
2022-08-19T15:22:40.900Z,101502.34
2022-08-19T15:25:11.736Z,101493.47
2022-08-19T15:27:39.672Z,101494.72
2022-08-19T15:30:09.210Z,101492.50
2022-08-19T15:32:39.646Z,101487.06
2022-08-19T15:35:07.466Z,101495.47
2022-08-19T15:37:37.161Z,101504.50
2022-08-19T15:40:09.491Z,101504.81
2022-08-19T15:42:37.573Z,101503.47
2022-08-19T15:45:06.294Z,101511.78
2022-08-19T15:47:34.541Z,101510.00
2022-08-19T15:50:13.494Z,101512.00
2022-08-19T15:52:52.431Z,101516.69
2022-08-19T15:55:32.433Z,101509.13
2022-08-19T15:58:28.469Z,101509.44
2022-08-19T16:01:20.584Z,101511.66
2022-08-19T16:04:14.213Z,101506.53
2022-08-19T16:06:51.054Z,101507.03
2022-08-19T16:09:24.942Z,101499.16
2022-08-19T16:11:56.895Z,101516.38
2022-08-19T16:14:24.346Z,101508.66
2022-08-19T16:16:51.415Z,101507.75
2022-08-19T16:19:21.346Z,101520.34
2022-08-19T16:21:52.388Z,101509.94
2022-08-19T16:24:21.298Z,101511.38
2022-08-19T16:26:48.251Z,101511.00
2022-08-19T16:29:33.440Z,101515.59
2022-08-19T16:32:02.866Z,101517.31
2022-08-19T16:34:29.947Z,101504.19
2022-08-19T16:36:56.379Z,101509.63
2022-08-19T16:39:23.748Z,101515.38
2022-08-19T16:41:51.489Z,101518.53
2022-08-19T16:44:20.766Z,101508.63
2022-08-19T16:46:55.713Z,101504.53
2022-08-19T16:49:52.990Z,101509.25
2022-08-19T16:52:21.286Z,101507.59
2022-08-19T16:54:48.526Z,101512.00
2022-08-19T16:57:15.113Z,101519.63
2022-08-19T16:59:43.760Z,101521.25
2022-08-19T17:02:15.580Z,101513.50
2022-08-19T17:04:42.070Z,101517.63
2022-08-19T17:07:10.048Z,101510.13
2022-08-19T17:09:36.839Z,101514.09
2022-08-19T17:12:07.756Z,101509.50
2022-08-19T17:14:37.048Z,101507.47
2022-08-19T17:17:03.592Z,101505.59
2022-08-19T17:19:30.123Z,101507.53
2022-08-19T17:21:57.777Z,101509.34
2022-08-19T17:24:26.835Z,101498.25
2022-08-19T17:26:53.369Z,101505.41
2022-08-19T17:29:27.479Z,101512.66
2022-08-19T17:31:53.948Z,101507.50
2022-08-19T17:34:31.810Z,101508.72
2022-08-19T17:36:58.353Z,101509.25
2022-08-19T17:39:29.924Z,101517.84
2022-08-19T17:42:47.633Z,101520.50
2022-08-19T17:45:14.541Z,101516.09
2022-08-19T17:47:52.784Z,101524.22
2022-08-19T17:50:20.143Z,101522.09
2022-08-19T17:53:06.197Z,101520.66
2022-08-19T17:55:41.667Z,101520.25
2022-08-19T17:58:08.596Z,101523.69
2022-08-19T18:00:53.817Z,101527.63
2022-08-19T18:04:12.665Z,101531.47
2022-08-19T18:06:46.908Z,101532.75
2022-08-19T18:09:20.803Z,101535.72
2022-08-19T18:11:54.896Z,101543.84
2022-08-19T18:14:34.124Z,101550.38
2022-08-19T18:17:15.285Z,101553.25
2022-08-19T18:19:52.629Z,101550.31
2022-08-19T18:22:38.053Z,101552.81
2022-08-19T18:25:16.607Z,101558.00
2022-08-19T18:27:43.346Z,101553.97
2022-08-19T18:30:10.591Z,101555.66
2022-08-19T18:32:42.294Z,101565.66
2022-08-19T18:35:14.254Z,101565.50
2022-08-19T18:37:41.905Z,101563.31
2022-08-19T18:40:31.021Z,101575.03
2022-08-19T18:43:03.600Z,101561.91
2022-08-19T18:45:49.779Z,101570.28
2022-08-19T18:48:35.002Z,101570.03
2022-08-19T18:51:02.170Z,101581.34
2022-08-19T18:53:32.265Z,101579.09
2022-08-19T18:55:59.546Z,101584.84
2022-08-19T18:58:35.215Z,101592.53
2022-08-19T19:01:11.179Z,101587.75
2022-08-19T19:03:42.661Z,101592.69
2022-08-19T19:06:13.904Z,101601.03
2022-08-19T19:08:40.757Z,101603.66
2022-08-19T19:11:09.377Z,101602.00
2022-08-19T19:13:39.754Z,101597.09
2022-08-19T19:16:13.082Z,101611.34
2022-08-19T19:18:39.609Z,101610.81
2022-08-19T19:21:07.943Z,101609.84
2022-08-19T19:23:34.768Z,101616.94
2022-08-19T19:26:01.695Z,101615.53
2022-08-19T19:28:29.316Z,101623.09
2022-08-19T19:31:00.148Z,101625.47
2022-08-19T19:33:27.920Z,101621.53
2022-08-19T19:35:54.834Z,101624.88
2022-08-19T19:38:21.403Z,101621.41
2022-08-19T19:40:48.003Z,101625.53
2022-08-19T19:43:17.248Z,101626.69
2022-08-19T19:45:44.387Z,101636.41
2022-08-19T19:48:16.248Z,101630.00
2022-08-19T19:50:44.634Z,101628.47
2022-08-19T19:53:11.308Z,101624.13
2022-08-19T19:55:37.798Z,101617.56
2022-08-19T19:58:06.939Z,101623.00
2022-08-19T20:00:34.040Z,101625.03
2022-08-19T20:03:00.648Z,101626.41
2022-08-19T20:05:27.157Z,101624.63
2022-08-19T20:08:13.246Z,101630.75
2022-08-19T20:10:42.775Z,101628.75
2022-08-19T20:13:10.689Z,101634.06
2022-08-19T20:15:42.376Z,101631.41
2022-08-19T20:18:11.925Z,101641.16
2022-08-19T20:20:38.645Z,101631.69
2022-08-19T20:23:05.287Z,101631.81
2022-08-19T20:25:32.201Z,101640.88
2022-08-19T20:28:01.124Z,101642.81
2022-08-19T20:30:28.674Z,101632.34
2022-08-19T20:32:58.827Z,101639.16
2022-08-19T20:35:26.413Z,101640.97
2022-08-19T20:37:58.013Z,101648.19
2022-08-19T20:40:25.138Z,101650.16
2022-08-19T20:42:54.441Z,101644.13
2022-08-19T20:45:32.731Z,101648.88
2022-08-19T20:48:02.656Z,101649.00
2022-08-19T20:50:30.595Z,101643.72
2022-08-19T20:52:57.598Z,101639.34
2022-08-19T20:55:24.292Z,101640.34
2022-08-19T20:57:51.627Z,101649.13
2022-08-19T21:00:19.038Z,101647.72
2022-08-19T21:02:46.868Z,101645.78
2022-08-19T21:05:13.830Z,101647.72
2022-08-19T21:07:40.413Z,101642.28
2022-08-19T21:10:07.547Z,101649.53
2022-08-19T21:12:34.149Z,101642.41
2022-08-19T21:15:03.238Z,101643.97
2022-08-19T21:17:43.674Z,101639.63
2022-08-19T21:20:10.453Z,101639.50
2022-08-19T21:22:37.105Z,101636.13
2022-08-19T21:25:06.253Z,101640.50
2022-08-19T21:27:32.929Z,101637.84
2022-08-19T21:29:59.466Z,101627.34
2022-08-19T21:32:26.038Z,101628.34
2022-08-19T21:34:52.839Z,101637.53
2022-08-19T21:37:24.854Z,101627.75
2022-08-19T21:39:52.563Z,101628.34
2022-08-19T21:42:19.041Z,101632.81
2022-08-19T21:44:45.970Z,101634.72
2022-08-19T21:47:12.961Z,101633.91
2022-08-19T21:49:39.602Z,101636.41
2022-08-19T21:52:06.602Z,101626.63
2022-08-19T21:54:38.136Z,101629.44
2022-08-19T21:57:10.242Z,101630.41
2022-08-19T21:59:41.148Z,101631.25
2022-08-19T22:02:19.915Z,101634.72
2022-08-19T22:04:47.994Z,101635.72
2022-08-19T22:07:14.847Z,101635.97
2022-08-19T22:09:42.494Z,101630.66
2022-08-19T22:12:20.950Z,101633.44
2022-08-19T22:14:47.401Z,101640.69
2022-08-19T22:17:14.633Z,101646.09
2022-08-19T22:19:41.373Z,101645.53
2022-08-19T22:22:08.080Z,101649.16
2022-08-19T22:24:34.534Z,101642.03
2022-08-19T22:27:02.387Z,101649.97
2022-08-19T22:29:33.795Z,101654.44
2022-08-19T22:32:01.560Z,101650.25
2022-08-19T22:34:48.020Z,101646.50
2022-08-19T22:37:14.574Z,101647.59
2022-08-19T22:39:41.110Z,101655.44
2022-08-19T22:42:07.611Z,101644.69
2022-08-19T22:44:34.036Z,101648.31
2022-08-19T22:47:00.494Z,101651.78
2022-08-19T22:49:26.962Z,101649.25
2022-08-19T22:52:12.183Z,101659.75
2022-08-19T22:54:38.713Z,101655.28
2022-08-19T22:57:05.307Z,101645.66
2022-08-19T22:59:31.792Z,101649.25
2022-08-19T23:01:58.242Z,101655.69
2022-08-19T23:04:24.821Z,101649.56
2022-08-19T23:06:52.545Z,101645.19
2022-08-19T23:09:19.679Z,101645.19
2022-08-19T23:11:49.979Z,101641.72
2022-08-19T23:14:18.560Z,101637.25
2022-08-19T23:16:50.443Z,101648.00
2022-08-19T23:19:27.155Z,101645.59
2022-08-19T23:21:53.687Z,101652.13
2022-08-19T23:24:20.206Z,101651.25
2022-08-19T23:27:05.381Z,101645.13
2022-08-19T23:29:50.708Z,101652.81
2022-08-19T23:32:21.500Z,101651.88
2022-08-19T23:34:48.596Z,101661.50
2022-08-19T23:37:15.618Z,101661.50
2022-08-19T23:39:42.208Z,101663.28
2022-08-19T23:42:13.782Z,101653.66
2022-08-19T23:44:51.960Z,101656.31
2022-08-19T23:47:20.061Z,101660.91
2022-08-19T23:49:47.521Z,101658.47
2022-08-19T23:52:14.038Z,101659.47
2022-08-19T23:54:43.127Z,101657.53
2022-08-19T23:57:13.779Z,101659.22
2022-08-19T23:59:42.416Z,101655.00
